Time;durP1;ratioP1;P1;durP2;ratioP2;P2;SDS_P1;SDS_P2;PMS_P1;PMS_P2;Temp;Humidity;BMP_temperature;BMP_pressure;BME280_temperature;BME280_humidity;BME280_pressure;Samples;Min_cycle;Max_cycle;Signal;HPM_P1;HPM_P2
2024/03/15 00:01:18;;;;;;;3.47;3.28;;;9.70;99.90;;;;;;4870543;29;20231;-84
2024/03/15 00:03:45;;;;;;;5.40;5.10;;;9.70;99.90;;;;;;4871650;29;20451;-84
2024/03/15 00:06:17;;;;;;;8.52;6.00;;;9.70;99.90;;;;;;4872902;29;20445;-83
2024/03/15 00:08:49;;;;;;;5.35;4.78;;;9.70;99.90;;;;;;4862480;29;20215;-84
2024/03/15 00:11:17;;;;;;;4.55;4.32;;;9.70;99.90;;;;;;4870905;29;20218;-82
2024/03/15 00:13:46;;;;;;;3.72;3.53;;;9.70;99.90;;;;;;4869923;29;20751;-86
2024/03/15 00:16:17;;;;;;;3.92;3.72;;;9.60;99.90;;;;;;4875196;29;20210;-87
2024/03/15 00:18:45;;;;;;;1.60;1.60;;;9.60;99.90;;;;;;4865108;29;20239;-87
2024/03/15 00:21:17;;;;;;;11.10;4.28;;;9.70;99.90;;;;;;4870655;29;20220;-87
2024/03/15 00:23:46;;;;;;;6.25;4.05;;;9.60;99.90;;;;;;4871879;29;20205;-86
2024/03/15 00:26:14;;;;;;;10.48;8.35;;;9.50;99.90;;;;;;4868453;29;20207;-86
2024/03/15 00:28:42;;;;;;;5.65;5.35;;;9.60;99.90;;;;;;4871584;29;20210;-86
2024/03/15 00:31:09;;;;;;;4.95;4.55;;;9.60;99.90;;;;;;4858410;29;20269;-86
2024/03/15 00:33:38;;;;;;;6.65;6.22;;;9.50;99.90;;;;;;4876566;29;20693;-83
2024/03/15 00:36:09;;;;;;;6.57;6.10;;;9.50;99.90;;;;;;4872191;29;20263;-84
2024/03/15 00:38:38;;;;;;;10.10;4.22;;;9.50;99.90;;;;;;4871693;29;20248;-85
2024/03/15 00:41:08;;;;;;;6.10;5.18;;;9.50;99.90;;;;;;4877806;29;20214;-86
2024/03/15 00:43:36;;;;;;;7.57;6.07;;;9.40;99.90;;;;;;4868052;29;20206;-87
2024/03/15 00:46:06;;;;;;;5.57;5.07;;;9.40;99.90;;;;;;4884268;29;20604;-90
2024/03/15 00:48:35;;;;;;;3.63;3.10;;;9.40;99.90;;;;;;4892515;29;20205;-87
2024/03/15 00:51:04;;;;;;;6.18;4.53;;;9.40;99.90;;;;;;4877795;29;20281;-86
2024/03/15 00:53:31;;;;;;;5.72;5.32;;;9.40;99.90;;;;;;4882299;29;20209;-82
2024/03/15 00:55:59;;;;;;;6.25;5.85;;;9.40;99.90;;;;;;4867117;29;20221;-81
2024/03/15 00:58:26;;;;;;;6.43;4.88;;;9.40;99.90;;;;;;4872349;29;20262;-81
2024/03/15 01:00:52;;;;;;;8.85;8.02;;;9.30;99.90;;;;;;4873196;29;20248;-81
2024/03/15 01:03:23;;;;;;;5.68;5.38;;;9.30;99.90;;;;;;4878621;29;20257;-83
2024/03/15 01:05:52;;;;;;;3.85;3.65;;;9.30;99.90;;;;;;4872406;29;20206;-83
2024/03/15 01:08:21;;;;;;;4.50;4.13;;;9.30;99.90;;;;;;4875946;29;20535;-82
2024/03/15 01:10:49;;;;;;;6.10;5.53;;;9.30;99.90;;;;;;4883586;29;20230;-81
2024/03/15 01:13:19;;;;;;;9.25;5.47;;;9.20;99.90;;;;;;4886136;29;20256;-81
2024/03/15 01:15:51;;;;;;;8.70;4.25;;;9.20;99.90;;;;;;4885604;29;20228;-85
2024/03/15 01:18:25;;;;;;;4.28;4.07;;;9.20;99.90;;;;;;4884119;29;20235;-89
2024/03/15 01:20:52;;;;;;;4.03;3.72;;;9.20;99.90;;;;;;4885232;29;20194;-89
2024/03/15 01:23:21;;;;;;;4.88;3.40;;;9.20;99.90;;;;;;4885249;29;20194;-86
2024/03/15 01:25:51;;;;;;;5.40;5.05;;;9.20;99.90;;;;;;4890449;29;20223;-84
2024/03/15 01:28:19;;;;;;;7.10;6.53;;;9.20;99.90;;;;;;4895428;29;20217;-84
2024/03/15 01:30:50;;;;;;;5.22;4.47;;;9.20;99.90;;;;;;4887055;29;20229;-84
2024/03/15 01:33:17;;;;;;;11.10;6.40;;;9.20;99.90;;;;;;4854798;29;20219;-86
2024/03/15 01:35:50;;;;;;;8.23;6.47;;;9.10;99.90;;;;;;4880281;29;20243;-83
2024/03/15 01:38:23;;;;;;;6.88;5.68;;;9.10;99.90;;;;;;4881220;29;20238;-84
2024/03/15 01:40:55;;;;;;;3.80;3.60;;;9.10;99.90;;;;;;4870677;29;20217;-85
2024/03/15 01:43:25;;;;;;;25.35;7.13;;;9.10;99.90;;;;;;4872039;29;20209;-87
2024/03/15 01:45:52;;;;;;;5.45;4.15;;;9.00;99.90;;;;;;4876484;29;20211;-85
2024/03/15 01:48:20;;;;;;;6.07;5.68;;;9.10;99.90;;;;;;4872934;29;20226;-87
2024/03/15 01:50:49;;;;;;;8.20;7.18;;;9.00;99.90;;;;;;4877245;29;20237;-85
2024/03/15 01:53:19;;;;;;;6.05;5.60;;;9.00;99.90;;;;;;4879187;29;20561;-85
2024/03/15 01:55:46;;;;;;;4.07;3.67;;;9.00;99.90;;;;;;4883292;29;20293;-86
2024/03/15 01:58:16;;;;;;;5.07;4.68;;;9.00;99.90;;;;;;4869735;29;20234;-88
2024/03/15 02:00:46;;;;;;;4.30;4.05;;;9.00;99.90;;;;;;4876887;29;20241;-87
2024/03/15 02:03:15;;;;;;;6.50;5.47;;;9.00;99.90;;;;;;4872071;29;20559;-85
2024/03/15 02:05:54;;;;;;;5.47;4.75;;;8.90;99.90;;;;;;4864401;29;20217;-84
2024/03/15 02:08:24;;;;;;;4.72;4.38;;;9.00;99.90;;;;;;4867633;29;20852;-85
2024/03/15 02:10:51;;;;;;;5.70;5.32;;;8.90;99.90;;;;;;4867540;29;20211;-86
2024/03/15 02:13:25;;;;;;;4.55;4.35;;;8.90;99.90;;;;;;4867250;29;20206;-87
2024/03/15 02:15:52;;;;;;;1.95;1.88;;;8.80;99.90;;;;;;4862273;29;20214;-86
2024/03/15 02:18:20;;;;;;;3.35;3.03;;;8.90;99.90;;;;;;4857355;29;20301;-86
2024/03/15 02:20:51;;;;;;;10.63;4.28;;;8.80;99.90;;;;;;4865618;29;20218;-86
2024/03/15 02:23:23;;;;;;;5.38;5.05;;;8.80;99.90;;;;;;4869185;29;20198;-86
2024/03/15 02:25:58;;;;;;;3.75;3.50;;;8.80;99.90;;;;;;4863645;29;20215;-87
2024/03/15 02:28:25;;;;;;;7.03;5.68;;;8.80;99.90;;;;;;4868386;29;20544;-82
2024/03/15 02:30:53;;;;;;;5.95;4.15;;;8.80;99.90;;;;;;4867334;29;20300;-82
2024/03/15 02:33:21;;;;;;;5.28;5.05;;;8.80;99.90;;;;;;4861636;29;20259;-83
2024/03/15 02:35:53;;;;;;;2.70;2.60;;;8.70;99.90;;;;;;4867642;29;20218;-85
2024/03/15 02:38:26;;;;;;;7.18;6.45;;;8.70;99.90;;;;;;4864913;29;20265;-81
2024/03/15 02:40:53;;;;;;;4.63;4.32;;;8.70;99.90;;;;;;4864784;29;20410;-81
2024/03/15 02:43:21;;;;;;;6.22;5.80;;;8.70;99.90;;;;;;4880014;29;20221;-87
2024/03/15 02:45:48;;;;;;;4.05;3.85;;;8.70;99.90;;;;;;4852958;29;20275;-82
2024/03/15 02:48:16;;;;;;;4.72;4.45;;;8.70;99.90;;;;;;4871349;29;20281;-83
2024/03/15 02:50:45;;;;;;;6.32;5.85;;;8.60;99.90;;;;;;4869651;29;20499;-83
2024/03/15 02:53:11;;;;;;;4.22;3.95;;;8.70;99.90;;;;;;4868162;29;20273;-81
2024/03/15 02:55:39;;;;;;;3.88;3.67;;;8.60;99.90;;;;;;4865533;29;20214;-81
2024/03/15 02:58:11;;;;;;;1.35;1.35;;;8.50;99.90;;;;;;4872745;29;20241;-82
2024/03/15 03:00:39;;;;;;;2.72;2.60;;;8.60;99.90;;;;;;4871471;29;20222;-81
2024/03/15 03:03:06;;;;;;;4.15;3.90;;;8.60;99.90;;;;;;4863919;29;20395;-81
2024/03/15 03:05:33;;;;;;;7.13;5.90;;;8.60;99.90;;;;;;4875428;29;20221;-85
2024/03/15 03:08:03;;;;;;;5.18;4.88;;;8.60;99.90;;;;;;4872871;29;20210;-88
2024/03/15 03:10:31;;;;;;;2.47;2.33;;;8.50;99.90;;;;;;4868411;29;20238;-89
2024/03/15 03:13:02;;;;;;;7.68;5.63;;;8.50;99.90;;;;;;4872166;29;20229;-91
2024/03/15 03:15:31;;;;;;;3.90;3.70;;;8.50;99.90;;;;;;4922378;24;20242;-86
2024/03/15 03:18:01;;;;;;;6.57;6.03;;;8.50;99.90;;;;;;4880517;29;20230;-86
2024/03/15 03:20:32;;;;;;;5.70;5.43;;;8.50;99.90;;;;;;4878837;29;20368;-90
2024/03/15 03:23:08;;;;;;;8.10;7.60;;;8.40;99.90;;;;;;4877766;29;20237;-88
2024/03/15 03:25:39;;;;;;;7.22;6.13;;;8.50;99.90;;;;;;4894851;29;20228;-85
2024/03/15 03:28:34;;;;;;;5.53;5.20;;;8.40;99.90;;;;;;4895626;29;20334;-90
2024/03/15 03:31:04;;;;;;;4.15;3.72;;;8.40;99.90;;;;;;4889219;29;20262;-86
2024/03/15 03:33:35;;;;;;;2.72;2.63;;;8.40;99.90;;;;;;4901214;29;20182;-87
2024/03/15 03:36:03;;;;;;;4.25;4.05;;;8.40;99.90;;;;;;4894933;29;20208;-88
2024/03/15 03:38:33;;;;;;;8.45;5.25;;;8.40;99.90;;;;;;4876812;29;20274;-87
2024/03/15 03:41:01;;;;;;;5.00;4.68;;;8.40;99.90;;;;;;4873649;29;20215;-87
2024/03/15 03:43:30;;;;;;;3.03;2.92;;;8.40;99.90;;;;;;4866495;29;20301;-86
2024/03/15 03:45:57;;;;;;;3.80;3.60;;;8.30;99.90;;;;;;4872118;29;20237;-84
2024/03/15 03:48:24;;;;;;;3.65;3.40;;;8.30;99.90;;;;;;4877475;29;20269;-88
2024/03/15 03:50:53;;;;;;;2.92;2.83;;;8.30;99.90;;;;;;4876014;29;20382;-86
2024/03/15 03:53:22;;;;;;;6.43;5.95;;;8.30;99.90;;;;;;4899075;29;20272;-86
2024/03/15 03:55:51;;;;;;;6.20;5.50;;;8.30;99.90;;;;;;4863397;29;20216;-87
2024/03/15 03:58:24;;;;;;;3.10;3.00;;;8.40;99.90;;;;;;4879587;29;20228;-88
2024/03/15 04:01:20;;;;;;;8.52;4.15;;;8.30;99.90;;;;;;4879038;29;20194;-89
2024/03/15 04:03:50;;;;;;;3.72;3.53;;;8.30;99.90;;;;;;4876878;29;20221;-90
2024/03/15 04:06:18;;;;;;;4.82;4.35;;;8.30;99.90;;;;;;4882217;29;20274;-88
2024/03/15 04:08:48;;;;;;;4.43;4.13;;;8.30;99.90;;;;;;4878455;29;20225;-91
2024/03/15 04:11:17;;;;;;;7.75;3.90;;;8.30;99.90;;;;;;4859185;29;20225;-91
2024/03/15 04:13:47;;;;;;;3.80;3.60;;;8.30;99.90;;;;;;4870112;29;20225;-84
2024/03/15 04:16:14;;;;;;;6.28;5.75;;;8.30;99.90;;;;;;4870253;29;20213;-80
2024/03/15 04:18:42;;;;;;;4.30;4.00;;;8.30;99.90;;;;;;4861383;29;20301;-81
2024/03/15 04:21:16;;;;;;;6.22;5.88;;;8.20;99.90;;;;;;4860204;29;20209;-82
2024/03/15 04:23:43;;;;;;;4.15;3.92;;;8.20;99.90;;;;;;4876744;29;20278;-82
2024/03/15 04:26:13;;;;;;;4.80;4.47;;;8.30;99.90;;;;;;4865910;29;20214;-83
2024/03/15 04:28:41;;;;;;;7.60;5.30;;;8.30;99.90;;;;;;4861559;29;20285;-82
2024/03/15 04:31:09;;;;;;;6.53;6.07;;;8.20;99.90;;;;;;4862201;29;20281;-85
2024/03/15 04:33:41;;;;;;;5.47;5.07;;;8.20;99.90;;;;;;4865764;29;20225;-84
2024/03/15 04:36:10;;;;;;;5.47;4.97;;;8.10;99.90;;;;;;4865912;29;20242;-85
2024/03/15 04:38:39;;;;;;;4.95;3.60;;;;;;;;;;4862399;29;20249;-85
2024/03/15 04:41:10;;;;;;;6.75;6.25;;;;;;;;;;4870249;29;20205;-84
2024/03/15 04:43:40;;;;;;;4.93;4.45;;;;;;;;;;4872278;29;20414;-88
2024/03/15 04:46:09;;;;;;;7.65;5.45;;;;;;;;;;4852737;29;20225;-85
2024/03/15 04:48:43;;;;;;;3.28;3.17;;;;;;;;;;4867305;29;20238;-84
2024/03/15 04:51:18;;;;;;;4.45;4.20;;;8.10;99.90;;;;;;4865094;29;20213;-84
2024/03/15 04:53:46;;;;;;;6.20;5.32;;;8.00;99.90;;;;;;4869835;29;20220;-85
2024/03/15 04:56:13;;;;;;;3.45;3.25;;;8.00;99.90;;;;;;4863211;29;20545;-83
2024/03/15 04:58:41;;;;;;;4.70;4.30;;;8.00;99.90;;;;;;4869227;29;20241;-86
2024/03/15 05:01:09;;;;;;;3.53;3.33;;;8.00;99.90;;;;;;4862667;29;20218;-85
2024/03/15 05:03:39;;;;;;;3.05;2.83;;;8.00;99.90;;;;;;4847426;29;20553;-85
2024/03/15 05:06:12;;;;;;;7.45;6.85;;;8.00;99.90;;;;;;4864120;29;20269;-84
2024/03/15 05:08:51;;;;;;;2.78;2.40;;;7.90;99.90;;;;;;4884498;29;20217;-87
2024/03/15 05:11:30;;;;;;;6.72;6.15;;;8.00;99.90;;;;;;4867541;29;20216;-87
2024/03/15 05:14:00;;;;;;;7.63;7.15;;;8.00;99.90;;;;;;4872058;29;20221;-85
2024/03/15 05:16:27;;;;;;;4.78;4.30;;;8.10;99.90;;;;;;4882699;29;20261;-86
2024/03/15 05:18:56;;;;;;;6.25;5.75;;;7.90;99.90;;;;;;4861004;29;20234;-88
2024/03/15 05:21:24;;;;;;;4.57;4.25;;;8.00;99.90;;;;;;4876204;29;20229;-84
2024/03/15 05:23:52;;;;;;;3.33;3.22;;;8.10;99.90;;;;;;4865228;29;20279;-86
2024/03/15 05:26:20;;;;;;;4.57;4.10;;;8.10;99.90;;;;;;4864255;29;20462;-88
2024/03/15 05:29:01;;;;;;;3.55;3.35;;;8.10;99.90;;;;;;4859485;29;20221;-86
2024/03/15 05:31:30;;;;;;;5.65;5.25;;;8.20;99.90;;;;;;4870235;29;20217;-88
2024/03/15 05:34:01;;;;;;;7.03;2.38;;;8.20;99.90;;;;;;4867693;29;20304;-87
2024/03/15 05:36:35;;;;;;;3.42;2.65;;;8.10;99.90;;;;;;4863015;29;20216;-85
2024/03/15 05:39:10;;;;;;;3.25;3.10;;;8.20;99.90;;;;;;4883176;29;20269;-86
2024/03/15 05:41:41;;;;;;;4.93;4.63;;;8.20;99.90;;;;;;4891086;29;20190;-83
2024/03/15 05:44:14;;;;;;;5.75;5.45;;;8.20;99.90;;;;;;4886432;29;20206;-83
2024/03/15 05:46:42;;;;;;;4.75;4.50;;;8.30;99.90;;;;;;4878631;29;20202;-82
2024/03/15 05:49:21;;;;;;;3.78;3.47;;;8.30;99.90;;;;;;4865373;29;20227;-86
2024/03/15 05:51:53;;;;;;;4.60;4.30;;;8.30;99.90;;;;;;4870663;29;20230;-83
2024/03/15 05:54:20;;;;;;;10.38;8.07;;;8.50;99.90;;;;;;4864082;29;20214;-82
2024/03/15 05:56:47;;;;;;;3.17;2.65;;;8.40;99.90;;;;;;4863044;29;20210;-81
2024/03/15 05:59:16;;;;;;;6.25;5.85;;;8.50;99.90;;;;;;4877248;29;20277;-83
2024/03/15 06:01:46;;;;;;;4.90;1.80;;;8.50;99.90;;;;;;4866793;29;20215;-85
2024/03/15 06:04:17;;;;;;;3.60;3.25;;;8.50;99.90;;;;;;4865713;29;20549;-83
2024/03/15 06:06:44;;;;;;;2.67;2.53;;;8.60;99.90;;;;;;4860833;29;20271;-82
2024/03/15 06:09:13;;;;;;;6.60;5.97;;;8.60;99.90;;;;;;4866018;29;20525;-82
2024/03/15 06:11:40;;;;;;;2.45;2.38;;;8.60;99.90;;;;;;4873813;29;20307;-87
2024/03/15 06:14:11;;;;;;;5.22;4.82;;;8.50;99.90;;;;;;4878827;29;20220;-86
2024/03/15 06:16:38;;;;;;;3.80;3.60;;;8.60;99.90;;;;;;4887217;29;20198;-87
2024/03/15 06:19:09;;;;;;;6.65;4.07;;;8.80;99.90;;;;;;4888699;29;20293;-85
2024/03/15 06:21:39;;;;;;;7.25;6.50;;;9.00;99.90;;;;;;4889220;29;20270;-85
2024/03/15 06:24:20;;;;;;;2.63;2.53;;;9.00;99.90;;;;;;4879464;29;20247;-83
2024/03/15 06:26:48;;;;;;;3.25;3.05;;;8.90;99.90;;;;;;4860905;29;20214;-85
2024/03/15 06:29:20;;;;;;;5.32;5.03;;;8.90;99.90;;;;;;4866957;29;20245;-82
2024/03/15 06:31:48;;;;;;;4.22;3.92;;;9.10;99.90;;;;;;4868359;29;20206;-87
2024/03/15 06:34:22;;;;;;;8.48;7.78;;;9.10;99.90;;;;;;4873340;29;20350;-85
2024/03/15 06:36:53;;;;;;;4.57;4.38;;;9.10;99.90;;;;;;4869462;29;20609;-85
2024/03/15 06:39:40;;;;;;;4.40;4.15;;;9.00;99.90;;;;;;4863992;29;20291;-82
2024/03/15 06:42:34;;;;;;;4.95;4.65;;;9.20;99.90;;;;;;4861736;29;20204;-87
2024/03/15 06:45:08;;;;;;;2.97;2.85;;;9.20;99.90;;;;;;4864175;29;20214;-79
2024/03/15 06:47:39;;;;;;;3.22;3.05;;;9.40;99.90;;;;;;4875860;29;20210;-85
2024/03/15 06:52:43;;;;;;;2.45;2.15;;;9.70;99.90;;;;;;4867434;29;20216;-85
2024/03/15 06:55:11;;;;;;;3.92;3.75;;;9.70;99.90;;;;;;4874235;29;20217;-85
2024/03/15 06:57:41;;;;;;;4.57;4.38;;;9.90;99.90;;;;;;4867592;29;20199;-82
2024/03/15 07:00:09;;;;;;;3.70;3.50;;;10.00;99.90;;;;;;4863216;29;20566;-84
2024/03/15 07:02:42;;;;;;;4.75;4.35;;;9.80;99.90;;;;;;4871056;29;20431;-83
2024/03/15 07:05:12;;;;;;;3.45;3.25;;;9.90;99.90;;;;;;4879288;29;20513;-82
2024/03/15 07:07:40;;;;;;;2.78;2.67;;;10.10;99.90;;;;;;4878188;29;20246;-83
2024/03/15 07:10:08;;;;;;;1.95;1.85;;;10.00;99.90;;;;;;4863215;29;20277;-82
2024/03/15 07:12:39;;;;;;;3.20;3.00;;;9.90;99.90;;;;;;4864101;29;20269;-82
2024/03/15 07:15:15;;;;;;;4.45;4.07;;;9.90;99.90;;;;;;4867060;29;20436;-87
2024/03/15 07:17:46;;;;;;;13.23;4.85;;;9.90;99.90;;;;;;4872341;29;20467;-84
2024/03/15 07:20:22;;;;;;;3.10;2.97;;;10.20;99.90;;;;;;4884942;29;20227;-86
2024/03/15 07:22:54;;;;;;;3.38;3.17;;;10.60;99.90;;;;;;4873986;29;20743;-84
2024/03/15 07:25:25;;;;;;;4.95;4.65;;;10.70;99.90;;;;;;4868652;29;20533;-83
2024/03/15 07:28:01;;;;;;;1.27;1.27;;;10.80;99.90;;;;;;4870679;29;20222;-83
2024/03/15 07:30:30;;;;;;;2.15;2.00;;;10.80;99.90;;;;;;4867451;29;20207;-82
2024/03/15 07:32:56;;;;;;;2.72;2.63;;;10.70;99.90;;;;;;4865337;29;20226;-83
2024/03/15 07:35:27;;;;;;;5.68;5.18;;;10.60;99.90;;;;;;4861512;29;20395;-80
2024/03/15 07:37:57;;;;;;;2.75;2.65;;;10.50;99.90;;;;;;4871597;29;20254;-82
2024/03/15 07:40:26;;;;;;;3.05;2.85;;;10.30;99.90;;;;;;4866735;29;20237;-83
2024/03/15 07:42:55;;;;;;;7.03;6.32;;;10.30;99.90;;;;;;4869051;29;20228;-81
2024/03/15 07:45:22;;;;;;;3.78;3.58;;;10.40;99.90;;;;;;4864039;29;20408;-83
2024/03/15 07:47:52;;;;;;;5.55;5.25;;;10.40;99.90;;;;;;4859065;29;20369;-81
2024/03/15 07:50:19;;;;;;;4.10;3.80;;;10.60;99.90;;;;;;4867948;29;20448;-83
2024/03/15 07:52:46;;;;;;;1.00;1.00;;;10.80;99.90;;;;;;4861169;29;20213;-82
2024/03/15 07:55:14;;;;;;;4.57;4.28;;;11.60;99.90;;;;;;4861480;29;20264;-79
2024/03/15 07:57:45;;;;;;;2.67;2.58;;;11.30;99.90;;;;;;4863696;29;20278;-83
2024/03/15 08:00:14;;;;;;;3.80;3.65;;;11.30;99.90;;;;;;4857736;29;20268;-83
2024/03/15 08:02:41;;;;;;;4.38;3.90;;;11.80;99.90;;;;;;4861722;29;20247;-82
2024/03/15 08:05:12;;;;;;;2.63;2.53;;;11.90;99.90;;;;;;4856795;29;20482;-83
2024/03/15 08:07:41;;;;;;;1.30;1.30;;;11.80;99.90;;;;;;4863238;29;20464;-83
2024/03/15 08:10:10;;;;;;;2.17;2.07;;;12.40;99.90;;;;;;4865944;29;20454;-83
2024/03/15 08:12:39;;;;;;;5.73;5.33;;;12.90;99.90;;;;;;4867530;29;20529;-82
2024/03/15 08:15:09;;;;;;;3.40;3.20;;;13.40;99.90;;;;;;4859984;29;20447;-81
2024/03/15 08:17:37;;;;;;;3.40;3.30;;;13.10;99.90;;;;;;4859821;29;20490;-81
2024/03/15 08:20:08;;;;;;;5.10;4.80;;;12.60;99.90;;;;;;4863758;29;20538;-80
2024/03/15 08:22:37;;;;;;;3.23;2.93;;;12.60;99.90;;;;;;4866172;29;20768;-83
2024/03/15 08:25:05;;;;;;;4.03;3.83;;;12.80;99.90;;;;;;4876860;29;20678;-81
2024/03/15 08:27:35;;;;;;;2.30;2.20;;;12.60;99.90;;;;;;4869644;29;20450;-83
2024/03/15 08:30:04;;;;;;;5.53;5.20;;;13.00;99.90;;;;;;4880393;29;20484;-84
2024/03/15 08:32:32;;;;;;;3.17;3.07;;;13.40;99.90;;;;;;4859799;29;20472;-83
2024/03/15 08:35:02;;;;;;;2.73;2.63;;;13.70;99.90;;;;;;4862117;29;20841;-80
2024/03/15 08:37:29;;;;;;;2.20;2.10;;;14.40;99.90;;;;;;4869219;29;20417;-81
2024/03/15 08:39:56;;;;;;;4.47;4.10;;;15.70;99.90;;;;;;4862776;29;20477;-82
2024/03/15 08:42:23;;;;;;;3.50;3.23;;;16.10;99.90;;;;;;4860519;29;20440;-81
2024/03/15 08:44:50;;;;;;;5.00;4.70;;;17.00;94.80;;;;;;4859792;29;20449;-84
2024/03/15 08:47:18;;;;;;;9.90;5.13;;;16.40;99.90;;;;;;4869603;29;20433;-84
2024/03/15 08:49:51;;;;;;;3.83;3.63;;;16.40;99.90;;;;;;4865722;29;20446;-83
2024/03/15 08:52:21;;;;;;;4.20;3.90;;;15.80;99.90;;;;;;4874414;29;20504;-81
2024/03/15 08:54:48;;;;;;;3.73;3.50;;;15.50;99.90;;;;;;4873346;29;20421;-85
2024/03/15 08:57:15;;;;;;;3.07;2.87;;;15.20;99.90;;;;;;4877510;29;20493;-79
2024/03/15 08:59:44;;;;;;;3.10;2.90;;;15.50;99.90;;;;;;4861613;29;20472;-83
2024/03/15 09:02:16;;;;;;;7.50;5.43;;;15.70;99.90;;;;;;4865214;29;20459;-80
2024/03/15 09:04:46;;;;;;;2.77;2.60;;;15.30;99.90;;;;;;4863737;29;20523;-82
2024/03/15 09:07:16;;;;;;;4.07;3.77;;;15.30;99.90;;;;;;4868239;29;20541;-84
2024/03/15 09:09:44;;;;;;;1.00;1.00;;;15.20;99.90;;;;;;4865521;29;20460;-80
2024/03/15 09:12:12;;;;;;;4.53;4.23;;;14.90;99.90;;;;;;4864696;29;20497;-83
2024/03/15 09:14:40;;;;;;;2.80;2.60;;;15.50;99.90;;;;;;4867838;29;20464;-84
2024/03/15 09:17:12;;;;;;;4.87;4.47;;;15.10;99.90;;;;;;4864576;29;20437;-82
2024/03/15 09:19:41;;;;;;;2.50;2.30;;;14.90;99.90;;;;;;4876208;29;20481;-82
2024/03/15 09:22:12;;;;;;;2.60;2.50;;;15.00;99.90;;;;;;4860366;29;20433;-82
2024/03/15 09:24:39;;;;;;;4.17;3.87;;;14.90;99.90;;;;;;4867481;29;20417;-79
2024/03/15 09:27:08;;;;;;;1.70;1.70;;;14.60;99.90;;;;;;4867364;29;20436;-81
2024/03/15 09:29:36;;;;;;;6.00;5.47;;;14.90;99.90;;;;;;4861403;29;20429;-80
2024/03/15 09:32:05;;;;;;;4.90;4.47;;;15.20;99.90;;;;;;4867073;29;20465;-84
2024/03/15 09:34:49;;;;;;;1.67;1.60;;;15.30;99.90;;;;;;4867401;29;20431;-80
2024/03/15 09:37:19;;;;;;;4.30;4.00;;;15.00;99.90;;;;;;4866155;29;20677;-80
2024/03/15 09:39:50;;;;;;;2.27;2.17;;;15.40;99.90;;;;;;4872779;29;20450;-83
2024/03/15 09:42:20;;;;;;;4.23;3.93;;;15.70;99.90;;;;;;4875648;29;20435;-81
2024/03/15 09:44:49;;;;;;;3.37;3.17;;;15.70;99.90;;;;;;4864900;29;20435;-81
2024/03/15 09:47:17;;;;;;;1.63;1.63;;;15.70;99.90;;;;;;4867572;29;21010;-81
2024/03/15 09:49:45;;;;;;;4.43;4.03;;;15.60;99.90;;;;;;4872037;29;20631;-81
2024/03/15 09:52:14;;;;;;;3.23;2.50;;;15.30;99.90;;;;;;4865441;29;20428;-80
2024/03/15 09:54:41;;;;;;;4.70;4.40;;;15.10;99.90;;;;;;4875152;29;20468;-80
2024/03/15 09:57:14;;;;;;;2.30;2.20;;;15.70;99.90;;;;;;4862284;29;20452;-81
2024/03/15 09:59:43;;;;;;;11.53;5.20;;;15.80;99.90;;;;;;4867877;29;20448;-83
2024/03/15 10:02:22;;;;;;;6.20;5.60;;;16.10;99.90;;;;;;4862316;29;20481;-80
2024/03/15 10:04:52;;;;;;;4.17;3.77;;;16.00;99.90;;;;;;4858656;29;20746;-78
2024/03/15 10:07:22;;;;;;;3.20;2.93;;;16.30;99.90;;;;;;4871862;29;20460;-78
2024/03/15 10:09:52;;;;;;;6.73;6.13;;;16.20;99.90;;;;;;4857860;29;20486;-80
2024/03/15 10:12:19;;;;;;;9.50;5.37;;;16.00;99.90;;;;;;4863665;29;20453;-79
2024/03/15 10:14:46;;;;;;;4.07;3.87;;;15.60;99.90;;;;;;4871435;29;20443;-81
2024/03/15 10:17:14;;;;;;;2.13;2.00;;;16.00;99.90;;;;;;4853734;29;20865;-79
2024/03/15 10:19:41;;;;;;;2.00;1.90;;;16.10;99.90;;;;;;4857114;29;20490;-79
2024/03/15 10:22:08;;;;;;;2.43;2.23;;;16.00;99.90;;;;;;4865527;29;20863;-79
2024/03/15 10:24:37;;;;;;;3.33;2.10;;;16.10;99.90;;;;;;4857058;29;20442;-81
2024/03/15 10:27:12;;;;;;;1.70;1.60;;;16.40;99.90;;;;;;4855469;29;20534;-80
2024/03/15 10:29:40;;;;;;;3.17;2.97;;;16.40;99.90;;;;;;4857279;29;20480;-79
2024/03/15 10:32:10;;;;;;;1.50;1.50;;;16.10;99.90;;;;;;4862064;29;20444;-79
2024/03/15 10:34:38;;;;;;;3.40;3.20;;;16.40;99.90;;;;;;4860856;29;20460;-79
2024/03/15 10:37:11;;;;;;;2.50;2.40;;;16.30;99.90;;;;;;4855252;29;20428;-78
2024/03/15 10:39:40;;;;;;;3.03;2.83;;;16.10;99.90;;;;;;4857003;29;20426;-79
2024/03/15 10:42:13;;;;;;;2.40;1.90;;;16.50;99.90;;;;;;4861802;29;20469;-78
2024/03/15 10:44:40;;;;;;;2.50;2.40;;;16.70;99.90;;;;;;4852936;29;20426;-80
2024/03/15 10:47:12;;;;;;;2.47;2.37;;;16.60;99.90;;;;;;4858578;29;20478;-79
2024/03/15 10:49:40;;;;;;;2.07;1.97;;;16.90;99.90;;;;;;4855539;29;20429;-80
2024/03/15 10:52:12;;;;;;;4.57;4.23;;;16.60;99.90;;;;;;4857475;29;20425;-78
2024/03/15 10:54:41;;;;;;;2.07;1.97;;;16.60;99.90;;;;;;4865164;29;20451;-79
2024/03/15 10:57:09;;;;;;;4.03;3.60;;;16.70;99.90;;;;;;4865099;29;20469;-79
2024/03/15 10:59:36;;;;;;;2.37;2.27;;;16.50;99.90;;;;;;4864141;29;20454;-80
2024/03/15 11:02:08;;;;;;;4.73;3.20;;;16.50;99.90;;;;;;4873137;29;20482;-77
2024/03/15 11:04:35;;;;;;;3.03;2.90;;;16.70;99.90;;;;;;4881852;29;20421;-79
2024/03/15 11:07:02;;;;;;;2.67;2.47;;;16.90;99.90;;;;;;4889117;29;20483;-80
2024/03/15 11:09:34;;;;;;;2.87;2.67;;;17.20;99.90;;;;;;4887992;29;20428;-81
2024/03/15 11:12:05;;;;;;;12.93;3.43;;;17.20;99.90;;;;;;4868105;29;20817;-80
2024/03/15 11:14:35;;;;;;;2.40;2.30;;;17.30;99.90;;;;;;4863780;29;20676;-79
2024/03/15 11:17:06;;;;;;;1.70;1.70;;;17.40;99.90;;;;;;4859938;29;20775;-79
2024/03/15 11:19:49;;;;;;;3.43;2.63;;;17.70;99.90;;;;;;4879046;29;20416;-79
2024/03/15 11:22:18;;;;;;;2.30;2.20;;;17.60;99.90;;;;;;4865075;29;21172;-80
2024/03/15 11:24:47;;;;;;;3.10;2.80;;;17.80;99.90;;;;;;4867583;29;20444;-79
2024/03/15 11:27:17;;;;;;;3.20;3.03;;;17.90;99.90;;;;;;4864968;29;20417;-79
2024/03/15 11:29:47;;;;;;;1.43;1.40;;;18.20;99.90;;;;;;4865518;29;20456;-80
2024/03/15 11:32:15;;;;;;;0.80;0.80;;;18.40;96.90;;;;;;4862223;29;20760;-81
2024/03/15 11:34:42;;;;;;;1.03;1.03;;;18.20;95.80;;;;;;4871101;29;20499;-79
2024/03/15 11:37:13;;;;;;;1.50;1.47;;;18.00;95.50;;;;;;4864673;29;20458;-80
2024/03/15 11:39:45;;;;;;;1.30;1.30;;;18.20;95.40;;;;;;4865624;29;20545;-81
2024/03/15 11:42:12;;;;;;;2.10;2.00;;;18.50;96.30;;;;;;4867017;29;20460;-81
2024/03/15 11:44:39;;;;;;;1.93;1.83;;;18.60;94.00;;;;;;4861006;29;20468;-80
2024/03/15 11:47:08;;;;;;;1.13;1.13;;;18.60;93.30;;;;;;4864535;29;20480;-80
2024/03/15 11:49:35;;;;;;;1.20;1.20;;;18.60;93.10;;;;;;4862916;29;20766;-79
2024/03/15 11:52:02;;;;;;;1.47;1.37;;;18.70;91.70;;;;;;4863826;29;20476;-78
2024/03/15 11:54:29;;;;;;;1.10;1.10;;;18.60;92.50;;;;;;4868056;29;20434;-79
2024/03/15 11:56:59;;;;;;;1.53;1.43;;;18.30;92.40;;;;;;4867682;29;20685;-78
2024/03/15 11:59:26;;;;;;;2.30;1.83;;;18.10;92.20;;;;;;4867865;29;20457;-80
2024/03/15 12:01:54;;;;;;;1.13;1.13;;;18.00;93.20;;;;;;4867988;29;20853;-80
2024/03/15 12:04:24;;;;;;;1.90;1.80;;;18.00;93.70;;;;;;4868592;29;20433;-80
2024/03/15 12:06:53;;;;;;;1.13;1.13;;;18.00;92.60;;;;;;4867994;29;20476;-79
2024/03/15 12:09:20;;;;;;;1.27;1.27;;;18.00;92.00;;;;;;4868273;29;20452;-80
2024/03/15 12:11:47;;;;;;;1.47;1.43;;;17.90;92.30;;;;;;4867713;29;20430;-80
2024/03/15 12:14:14;;;;;;;2.10;2.00;;;17.70;93.00;;;;;;4867719;29;20451;-80
2024/03/15 12:16:44;;;;;;;1.53;1.53;;;17.80;93.50;;;;;;4867614;29;20521;-79
2024/03/15 12:19:16;;;;;;;1.00;1.00;;;17.50;93.80;;;;;;4868050;29;20453;-80
2024/03/15 12:21:45;;;;;;;1.33;1.33;;;17.40;93.00;;;;;;4868037;29;20530;-80
2024/03/15 12:24:13;;;;;;;1.10;1.10;;;17.60;93.10;;;;;;4867420;29;20436;-79
2024/03/15 12:26:41;;;;;;;0.80;0.80;;;17.60;93.10;;;;;;4867561;29;20746;-79
2024/03/15 12:29:09;;;;;;;0.93;0.93;;;17.50;93.50;;;;;;4859651;29;20520;-79
2024/03/15 12:31:40;;;;;;;1.60;1.60;;;17.50;93.00;;;;;;4867441;29;20483;-81
2024/03/15 12:34:08;;;;;;;4.27;1.20;;;17.60;93.60;;;;;;4866707;29;20416;-80
2024/03/15 12:36:35;;;;;;;0.80;0.80;;;17.70;92.80;;;;;;4867114;29;20422;-79
2024/03/15 12:39:03;;;;;;;4.67;3.07;;;17.90;93.20;;;;;;4864604;29;20426;-81
2024/03/15 12:41:30;;;;;;;0.90;0.90;;;18.10;93.20;;;;;;4868062;29;20709;-80
2024/03/15 12:44:01;;;;;;;1.73;1.63;;;18.10;91.70;;;;;;4866254;29;20451;-79
2024/03/15 12:46:28;;;;;;;0.73;0.73;;;17.90;91.80;;;;;;4866687;29;20756;-81
2024/03/15 12:48:58;;;;;;;1.70;1.60;;;18.10;91.60;;;;;;4866271;29;20434;-81
2024/03/15 12:51:27;;;;;;;2.07;1.97;;;18.20;91.00;;;;;;4863584;29;20452;-80
2024/03/15 12:53:55;;;;;;;1.80;1.70;;;18.50;91.00;;;;;;4872709;29;20616;-81
2024/03/15 12:56:22;;;;;;;1.37;1.37;;;18.70;90.20;;;;;;4864567;29;20437;-81
2024/03/15 12:58:49;;;;;;;1.30;1.30;;;18.60;90.20;;;;;;4874674;29;20467;-80
2024/03/15 13:01:16;;;;;;;0.90;0.90;;;18.70;90.20;;;;;;4878096;29;20522;-80
2024/03/15 13:03:45;;;;;;;0.87;0.87;;;18.60;87.50;;;;;;4880149;29;20460;-78
2024/03/15 13:06:13;;;;;;;0.87;0.87;;;18.70;88.70;;;;;;4867044;29;20435;-81
2024/03/15 13:08:40;;;;;;;1.33;1.23;;;18.70;88.00;;;;;;4866470;29;20498;-80